Time;durP1;ratioP1;P1;durP2;ratioP2;P2;SDS_P1;SDS_P2;PMS_P1;PMS_P2;Temp;Humidity;BMP_temperature;BMP_pressure;BME280_temperature;BME280_humidity;BME280_pressure;Samples;Min_cycle;Max_cycle;Signal;HPM_P1;HPM_P2
2022/04/29 00:02:15;;;;;;;7.57;4.50;;;5.40;93.80;;;;;;5073803;28;20304;-76
2022/04/29 00:04:43;;;;;;;8.13;4.70;;;5.40;94.00;;;;;;5071680;28;20237;-75
2022/04/29 00:07:11;;;;;;;11.50;5.13;;;5.30;93.90;;;;;;5074172;28;20360;-75
2022/04/29 00:09:39;;;;;;;12.83;5.23;;;5.30;94.00;;;;;;5071393;28;20318;-75
2022/04/29 00:12:08;;;;;;;10.00;4.77;;;5.30;94.40;;;;;;5072277;28;20219;-75
2022/04/29 00:14:35;;;;;;;8.17;4.63;;;5.20;94.60;;;;;;5071847;28;20941;-75
2022/04/29 00:17:03;;;;;;;8.97;4.70;;;5.20;94.40;;;;;;5074609;28;20230;-75
2022/04/29 00:19:32;;;;;;;9.90;4.43;;;5.20;94.30;;;;;;5070827;28;20249;-75
2022/04/29 00:21:59;;;;;;;10.90;4.70;;;5.20;94.30;;;;;;5079700;28;20626;-76
2022/04/29 00:24:26;;;;;;;12.43;4.93;;;5.10;94.30;;;;;;5080765;28;20662;-75
2022/04/29 00:27:04;;;;;;;8.03;4.73;;;5.10;94.30;;;;;;5059613;28;20257;-75
2022/04/29 00:29:31;;;;;;;10.80;5.37;;;5.10;94.50;;;;;;5058851;28;20252;-76
2022/04/29 00:31:58;;;;;;;10.57;4.73;;;5.10;94.60;;;;;;5076145;28;20234;-75
2022/04/29 00:34:25;;;;;;;9.37;4.90;;;5.00;94.70;;;;;;5072998;28;20249;-76
2022/04/29 00:36:53;;;;;;;16.40;5.67;;;5.00;94.70;;;;;;5090556;28;20279;-76
2022/04/29 00:39:20;;;;;;;10.73;5.27;;;5.00;94.90;;;;;;5070138;28;20929;-76
2022/04/29 00:41:47;;;;;;;10.30;4.77;;;4.90;94.90;;;;;;5070777;28;20237;-76
2022/04/29 00:44:18;;;;;;;12.37;5.07;;;4.90;95.00;;;;;;5073225;28;20710;-76
2022/04/29 00:46:46;;;;;;;13.37;5.57;;;4.90;94.90;;;;;;5073463;28;20769;-76
2022/04/29 00:49:15;;;;;;;9.13;5.00;;;4.90;95.20;;;;;;5074275;28;20235;-75
2022/04/29 00:51:44;;;;;;;15.03;5.63;;;4.80;95.40;;;;;;5073577;28;20221;-75
2022/04/29 00:54:16;;;;;;;11.27;5.53;;;4.80;95.50;;;;;;5071252;28;20250;-76
2022/04/29 00:56:44;;;;;;;12.57;5.90;;;4.80;95.90;;;;;;5072552;28;20703;-75
2022/04/29 00:59:15;;;;;;;12.77;6.00;;;4.80;95.70;;;;;;5071649;28;20256;-76
2022/04/29 01:01:44;;;;;;;10.80;5.30;;;4.80;96.00;;;;;;5074957;28;20229;-76
2022/04/29 01:04:15;;;;;;;9.37;5.23;;;4.80;96.00;;;;;;5076958;28;20233;-76
2022/04/29 01:06:41;;;;;;;10.60;5.80;;;4.80;96.10;;;;;;5072423;28;20229;-76
2022/04/29 01:09:08;;;;;;;10.87;5.27;;;4.80;96.10;;;;;;5072006;28;20285;-76
2022/04/29 01:11:37;;;;;;;10.47;6.00;;;4.70;96.10;;;;;;5073533;28;20227;-76
2022/04/29 01:14:04;;;;;;;10.33;5.27;;;4.80;96.40;;;;;;5076308;28;20854;-75
2022/04/29 01:16:31;;;;;;;12.77;5.70;;;4.70;96.30;;;;;;5073402;28;20237;-75
2022/04/29 01:18:57;;;;;;;12.00;5.57;;;4.60;96.30;;;;;;5070345;28;21088;-75
2022/04/29 01:21:26;;;;;;;13.70;5.60;;;4.70;96.40;;;;;;5075062;28;20287;-76
2022/04/29 01:23:54;;;;;;;11.03;5.47;;;4.60;96.50;;;;;;5073543;28;20249;-75
2022/04/29 01:26:21;;;;;;;12.97;5.90;;;4.60;96.70;;;;;;5071096;28;20281;-75
2022/04/29 01:28:53;;;;;;;11.67;5.80;;;4.60;96.50;;;;;;5075099;28;20226;-75
2022/04/29 01:31:23;;;;;;;12.57;4.90;;;4.60;96.60;;;;;;5073223;28;20248;-76
2022/04/29 01:33:52;;;;;;;7.27;5.30;;;4.60;96.60;;;;;;5069240;28;20233;-76
2022/04/29 01:36:19;;;;;;;12.20;6.40;;;4.50;96.40;;;;;;5071383;28;20815;-76
2022/04/29 01:38:46;;;;;;;11.77;6.10;;;4.50;96.70;;;;;;5071471;28;20231;-76
2022/04/29 01:41:14;;;;;;;13.37;5.87;;;4.50;96.80;;;;;;5071403;28;20222;-75
2022/04/29 01:43:44;;;;;;;13.10;6.67;;;4.50;96.90;;;;;;5071117;28;20901;-76
2022/04/29 01:46:13;;;;;;;10.67;5.23;;;4.40;96.80;;;;;;5073240;28;20622;-75
2022/04/29 01:48:46;;;;;;;10.33;5.80;;;4.40;96.90;;;;;;5070720;28;20237;-75
2022/04/29 01:51:25;;;;;;;12.90;6.07;;;4.40;96.90;;;;;;5073300;28;20435;-76
2022/04/29 01:53:54;;;;;;;11.60;5.87;;;4.40;97.10;;;;;;5071582;28;20257;-76
2022/04/29 01:56:32;;;;;;;13.10;5.90;;;4.40;97.20;;;;;;5072574;28;20317;-76
2022/04/29 01:59:00;;;;;;;10.10;6.00;;;4.30;97.60;;;;;;5070077;28;20230;-75
2022/04/29 02:01:27;;;;;;;14.13;6.10;;;4.30;97.10;;;;;;5073793;28;20233;-75
2022/04/29 02:03:55;;;;;;;13.77;6.33;;;4.30;97.20;;;;;;5066836;28;20679;-75
2022/04/29 02:06:23;;;;;;;12.03;6.70;;;4.30;97.10;;;;;;5071552;28;20695;-76
2022/04/29 02:08:50;;;;;;;10.67;5.80;;;4.30;97.20;;;;;;5076701;28;20233;-75
2022/04/29 02:11:18;;;;;;;11.00;6.37;;;4.40;97.50;;;;;;5073990;28;20224;-75
2022/04/29 02:13:52;;;;;;;11.20;6.20;;;4.30;97.60;;;;;;5073078;28;20233;-75
2022/04/29 02:16:28;;;;;;;10.90;6.40;;;4.30;97.70;;;;;;5069227;28;20315;-76
2022/04/29 02:18:55;;;;;;;12.30;5.80;;;4.30;97.60;;;;;;5072435;28;20827;-76
2022/04/29 02:21:22;;;;;;;10.37;6.50;;;4.30;97.60;;;;;;5071628;28;20880;-75
2022/04/29 02:23:49;;;;;;;16.83;6.87;;;4.30;97.70;;;;;;5072848;28;20721;-75
2022/04/29 02:26:16;;;;;;;14.53;6.60;;;4.30;97.80;;;;;;5075956;28;20690;-75
2022/04/29 02:28:43;;;;;;;13.63;6.20;;;4.30;97.80;;;;;;5071227;28;20233;-75
2022/04/29 02:31:11;;;;;;;13.57;6.90;;;4.30;97.70;;;;;;5073417;28;20258;-75
2022/04/29 02:33:37;;;;;;;10.77;6.00;;;4.30;97.90;;;;;;5070089;28;20216;-75
2022/04/29 02:36:05;;;;;;;11.10;5.97;;;4.30;97.90;;;;;;5074724;28;20229;-75
2022/04/29 02:38:32;;;;;;;17.30;7.07;;;4.30;97.90;;;;;;5070511;28;20509;-74
2022/04/29 02:40:59;;;;;;;13.33;7.17;;;4.30;97.80;;;;;;5074932;28;20244;-75
2022/04/29 02:43:26;;;;;;;9.47;6.47;;;4.30;97.90;;;;;;5075362;28;20347;-75
2022/04/29 02:45:53;;;;;;;16.53;6.73;;;4.30;97.90;;;;;;5074951;28;20229;-75
2022/04/29 02:48:21;;;;;;;11.20;6.93;;;4.30;98.00;;;;;;5074811;28;20246;-75
2022/04/29 02:50:48;;;;;;;16.53;7.37;;;4.30;98.00;;;;;;5088813;28;20233;-75
2022/04/29 02:53:16;;;;;;;12.03;6.53;;;4.20;97.90;;;;;;5074757;28;20229;-75
2022/04/29 02:55:43;;;;;;;9.90;7.03;;;4.30;98.00;;;;;;5076480;28;20233;-76
2022/04/29 02:58:19;;;;;;;13.47;6.27;;;4.30;98.00;;;;;;5074293;28;20690;-76
2022/04/29 03:00:46;;;;;;;13.37;6.80;;;4.20;98.00;;;;;;5075031;28;20223;-76
2022/04/29 03:03:13;;;;;;;12.70;6.87;;;4.20;98.00;;;;;;5073893;28;20224;-75
2022/04/29 03:05:41;;;;;;;12.23;6.67;;;4.20;98.20;;;;;;5074313;28;20222;-76
2022/04/29 03:08:10;;;;;;;11.97;6.73;;;4.20;98.30;;;;;;5077179;28;20237;-75
2022/04/29 03:10:38;;;;;;;12.37;6.90;;;4.20;98.20;;;;;;5078610;28;20233;-75
2022/04/29 03:13:05;;;;;;;13.83;6.70;;;4.20;98.20;;;;;;5073621;28;20225;-75
2022/04/29 03:15:36;;;;;;;15.57;8.20;;;4.20;98.30;;;;;;5075270;28;20279;-76
2022/04/29 03:18:19;;;;;;;9.97;6.83;;;4.20;98.40;;;;;;5074622;28;20831;-75
2022/04/29 03:20:48;;;;;;;12.93;6.97;;;4.20;98.50;;;;;;5075288;28;21126;-76
2022/04/29 03:23:17;;;;;;;15.33;7.60;;;4.20;98.70;;;;;;5076357;28;20370;-76
2022/04/29 03:25:47;;;;;;;12.50;7.43;;;4.20;98.70;;;;;;5076433;28;20239;-76
2022/04/29 03:28:15;;;;;;;14.37;7.83;;;4.20;98.70;;;;;;5074723;28;20238;-76
2022/04/29 03:30:42;;;;;;;12.60;7.30;;;4.10;98.60;;;;;;5076935;28;20263;-75
2022/04/29 03:33:11;;;;;;;14.10;7.47;;;4.10;98.60;;;;;;5069202;28;20320;-76
2022/04/29 03:35:41;;;;;;;11.47;6.87;;;4.10;98.50;;;;;;5076708;28;20290;-75
2022/04/29 03:38:13;;;;;;;12.43;6.97;;;4.10;98.50;;;;;;5074024;28;20329;-75
2022/04/29 03:40:40;;;;;;;14.27;7.70;;;4.10;98.60;;;;;;5094275;28;20257;-76
2022/04/29 03:43:07;;;;;;;8.30;6.40;;;4.10;98.60;;;;;;5075436;28;20221;-76
2022/04/29 03:45:34;;;;;;;12.20;7.27;;;4.10;98.70;;;;;;5073163;28;20229;-76
2022/04/29 03:48:03;;;;;;;12.57;7.60;;;4.10;98.60;;;;;;5077426;28;20220;-76
2022/04/29 03:51:03;;;;;;;15.07;7.93;;;4.10;98.60;;;;;;5055705;28;20229;-76
2022/04/29 03:53:31;;;;;;;14.37;8.17;;;4.10;98.70;;;;;;5076651;28;20253;-75
2022/04/29 03:56:02;;;;;;;17.93;8.67;;;4.10;98.80;;;;;;5071922;28;20236;-74
2022/04/29 03:58:30;;;;;;;15.07;8.13;;;4.10;98.90;;;;;;5074768;28;20233;-75
2022/04/29 04:00:56;;;;;;;17.80;8.77;;;4.10;98.90;;;;;;5074523;28;20296;-76
2022/04/29 04:03:47;;;;;;;13.30;8.47;;;4.10;99.00;;;;;;5071959;28;20243;-75
2022/04/29 04:09:05;;;;;;;14.73;8.00;;;4.20;99.00;;;;;;5090730;28;20232;-75
2022/04/29 04:11:33;;;;;;;15.93;7.50;;;4.20;99.00;;;;;;5073756;28;20927;-76
2022/04/29 04:14:00;;;;;;;13.10;7.53;;;4.20;99.10;;;;;;5073910;28;20238;-74
2022/04/29 04:16:33;;;;;;;12.07;7.80;;;4.20;99.00;;;;;;5069911;28;20434;-75
2022/04/29 04:19:01;;;;;;;13.23;7.83;;;4.20;99.00;;;;;;5074394;28;20527;-74
2022/04/29 04:21:28;;;;;;;13.50;7.80;;;4.20;99.10;;;;;;5076538;28;20233;-73
2022/04/29 04:23:55;;;;;;;11.50;7.10;;;4.20;99.20;;;;;;5072087;28;20312;-75
2022/04/29 04:26:24;;;;;;;13.40;7.73;;;4.20;99.10;;;;;;5076738;28;20227;-76
2022/04/29 04:28:53;;;;;;;13.87;8.00;;;4.20;99.20;;;;;;5079530;28;20228;-75
2022/04/29 04:31:21;;;;;;;27.23;8.77;;;4.30;99.00;;;;;;5072547;28;20683;-75
2022/04/29 04:33:52;;;;;;;18.57;7.43;;;4.30;99.00;;;;;;5073397;28;20586;-74
2022/04/29 04:36:18;;;;;;;14.83;7.60;;;4.30;99.10;;;;;;5074779;28;20230;-78
2022/04/29 04:38:47;;;;;;;15.80;8.53;;;4.30;99.20;;;;;;5081289;28;20226;-77
2022/04/29 04:41:16;;;;;;;15.97;8.37;;;4.30;99.20;;;;;;5079440;28;20226;-76
2022/04/29 04:43:45;;;;;;;12.53;7.90;;;4.40;99.30;;;;;;5075727;28;20247;-76
2022/04/29 04:46:13;;;;;;;14.07;7.93;;;4.40;99.30;;;;;;5076130;28;20229;-77
2022/04/29 04:48:39;;;;;;;14.13;8.40;;;4.40;99.20;;;;;;5082515;28;20310;-76
2022/04/29 04:51:24;;;;;;;14.17;7.87;;;4.50;99.20;;;;;;5079707;28;20222;-76
2022/04/29 04:53:58;;;;;;;17.23;8.03;;;4.50;99.10;;;;;;5071271;28;20226;-76
2022/04/29 04:56:26;;;;;;;15.43;8.73;;;4.60;99.20;;;;;;5075559;28;20309;-76
2022/04/29 04:58:54;;;;;;;15.07;8.57;;;4.60;99.10;;;;;;5076668;28;20223;-76
2022/04/29 05:01:21;;;;;;;15.57;7.93;;;4.60;99.10;;;;;;5077104;28;20230;-75
2022/04/29 05:04:08;;;;;;;12.40;7.60;;;4.60;99.10;;;;;;5075288;28;21105;-76
2022/04/29 05:06:53;;;;;;;16.07;7.77;;;4.70;99.10;;;;;;5076206;28;20387;-76
2022/04/29 05:09:21;;;;;;;10.43;7.20;;;4.70;99.00;;;;;;5078374;28;20765;-77
2022/04/29 05:11:48;;;;;;;13.10;8.00;;;4.70;99.00;;;;;;5074481;28;20989;-76
2022/04/29 05:14:35;;;;;;;11.93;7.37;;;4.70;99.10;;;;;;5068572;28;20826;-76
2022/04/29 05:17:02;;;;;;;15.27;7.30;;;4.80;99.00;;;;;;5072023;28;20267;-77
2022/04/29 05:19:41;;;;;;;15.93;7.50;;;4.80;99.00;;;;;;5076909;28;20290;-77
2022/04/29 05:22:09;;;;;;;14.90;8.43;;;4.80;99.10;;;;;;5077334;28;20222;-76
2022/04/29 05:24:36;;;;;;;15.87;7.43;;;4.90;99.20;;;;;;5069636;28;20236;-77
2022/04/29 05:27:21;;;;;;;13.47;7.93;;;4.90;99.20;;;;;;5082004;28;20591;-76
2022/04/29 05:30:24;;;;;;;13.13;7.63;;;5.00;99.30;;;;;;5078836;28;20234;-77
2022/04/29 05:33:10;;;;;;;12.20;7.27;;;5.00;99.20;;;;;;5077713;28;20303;-77
2022/04/29 05:35:56;;;;;;;11.40;6.73;;;5.10;99.10;;;;;;5082279;28;20229;-77
2022/04/29 05:44:17;;;;;;;11.90;6.43;;;5.40;99.00;;;;;;5073093;28;20233;-77
2022/04/29 05:46:45;;;;;;;11.77;7.00;;;5.50;98.80;;;;;;5080001;28;20233;-76
2022/04/29 05:49:12;;;;;;;12.90;7.43;;;5.60;99.00;;;;;;5074034;28;20249;-76
2022/04/29 05:51:43;;;;;;;10.30;6.80;;;5.70;98.90;;;;;;5077883;28;20307;-77
2022/04/29 05:54:10;;;;;;;14.33;7.20;;;5.70;98.80;;;;;;5074244;28;21001;-77
2022/04/29 05:56:37;;;;;;;12.07;6.50;;;5.90;98.70;;;;;;5077367;28;20257;-76
2022/04/29 05:59:09;;;;;;;13.53;7.20;;;5.90;98.50;;;;;;5075662;28;20403;-77
2022/04/29 06:01:58;;;;;;;11.37;6.73;;;6.00;98.60;;;;;;5077703;28;20281;-76
2022/04/29 06:04:33;;;;;;;13.70;6.47;;;6.10;98.60;;;;;;5078485;28;20229;-76
2022/04/29 06:07:00;;;;;;;11.30;6.83;;;6.20;98.40;;;;;;5076894;28;20227;-76
2022/04/29 06:09:27;;;;;;;13.80;6.53;;;6.30;98.20;;;;;;5077904;28;20700;-76
2022/04/29 06:11:55;;;;;;;12.40;6.77;;;6.40;98.00;;;;;;5078715;28;20249;-77
2022/04/29 06:14:28;;;;;;;11.87;6.13;;;6.40;98.10;;;;;;5073365;28;20271;-77
2022/04/29 06:17:16;;;;;;;10.00;6.77;;;6.40;98.00;;;;;;5080058;28;20861;-76
2022/04/29 06:20:04;;;;;;;8.30;6.03;;;6.50;98.00;;;;;;5078366;28;20219;-76
2022/04/29 06:22:50;;;;;;;12.50;6.47;;;6.50;98.00;;;;;;5082615;28;20287;-77
2022/04/29 06:25:28;;;;;;;11.30;6.43;;;6.70;98.00;;;;;;5077691;28;20805;-77
2022/04/29 06:27:56;;;;;;;14.73;6.67;;;6.90;98.20;;;;;;5079772;28;20227;-77
2022/04/29 06:30:24;;;;;;;9.30;5.50;;;7.20;98.30;;;;;;5076559;28;20215;-77
2022/04/29 06:33:22;;;;;;;8.37;5.83;;;7.40;98.00;;;;;;5079053;28;20251;-76
2022/04/29 06:35:50;;;;;;;6.90;5.30;;;7.70;97.70;;;;;;5079417;28;20234;-77
2022/04/29 06:38:18;;;;;;;9.90;5.90;;;7.90;97.40;;;;;;5097388;28;20659;-76
2022/04/29 06:40:58;;;;;;;8.73;5.77;;;8.10;97.10;;;;;;5078477;28;20238;-77
2022/04/29 06:43:43;;;;;;;7.43;5.20;;;8.30;96.80;;;;;;5077425;28;20237;-77
2022/04/29 06:46:31;;;;;;;12.03;5.60;;;8.50;96.40;;;;;;5077031;28;20241;-77
2022/04/29 06:49:25;;;;;;;9.63;5.40;;;8.50;95.90;;;;;;5080042;28;20227;-77
2022/04/29 06:51:55;;;;;;;8.30;5.23;;;8.60;95.80;;;;;;5072642;28;20304;-77
2022/04/29 06:54:27;;;;;;;6.53;4.80;;;8.70;95.90;;;;;;5079190;28;20233;-77
2022/04/29 06:57:01;;;;;;;9.13;5.53;;;8.70;96.00;;;;;;5079120;28;20242;-77
2022/04/29 06:59:29;;;;;;;7.27;4.60;;;8.80;95.90;;;;;;5078347;28;20633;-77
2022/04/29 07:01:56;;;;;;;10.03;5.50;;;8.90;95.80;;;;;;5079769;28;20707;-77
2022/04/29 07:04:25;;;;;;;8.20;4.90;;;8.90;95.60;;;;;;5078268;28;20611;-77
2022/04/29 07:06:54;;;;;;;8.37;4.83;;;9.00;95.70;;;;;;5078284;28;20219;-77
2022/04/29 07:09:21;;;;;;;9.00;5.10;;;9.10;96.00;;;;;;5077929;28;20742;-77
2022/04/29 07:12:08;;;;;;;7.77;4.43;;;9.40;96.30;;;;;;5073161;28;20768;-77
2022/04/29 07:14:48;;;;;;;9.43;4.80;;;9.90;96.40;;;;;;5071455;28;20234;-77
2022/04/29 07:17:17;;;;;;;10.13;4.27;;;10.50;95.80;;;;;;5078282;28;20237;-77
2022/04/29 07:19:45;;;;;;;9.30;4.20;;;11.10;95.50;;;;;;5079078;28;20359;-77
2022/04/29 07:22:14;;;;;;;8.47;3.97;;;11.80;95.00;;;;;;5078604;28;20289;-77
2022/04/29 07:24:45;;;;;;;6.80;3.70;;;12.50;93.80;;;;;;5077007;28;20226;-77
2022/04/29 07:27:13;;;;;;;11.23;3.90;;;13.20;93.80;;;;;;5075673;28;20233;-78
2022/04/29 07:29:41;;;;;;;6.07;3.40;;;14.00;92.80;;;;;;5081598;28;20225;-77
2022/04/29 07:32:20;;;;;;;7.80;3.23;;;14.80;91.80;;;;;;5081875;28;20238;-77
2022/04/29 07:43:47;;;;;;;3.97;2.80;;;17.70;83.80;;;;;;5069424;28;20227;-77
2022/04/29 07:46:14;;;;;;;6.53;2.90;;;18.20;78.70;;;;;;5076754;28;20239;-77
2022/04/29 07:49:03;;;;;;;5.45;2.80;;;18.60;77.50;;;;;;5080943;28;20633;-77
2022/04/29 07:51:30;;;;;;;4.43;2.45;;;18.90;74.60;;;;;;5083075;28;20239;-77
2022/04/29 07:53:58;;;;;;;3.25;2.47;;;19.10;71.70;;;;;;5083088;28;20237;-78
2022/04/29 07:56:25;;;;;;;5.95;2.90;;;19.10;72.50;;;;;;5079404;28;20226;-77
2022/04/29 07:58:55;;;;;;;6.85;2.50;;;19.30;71.80;;;;;;5082389;28;20276;-77
2022/04/29 08:01:22;;;;;;;4.97;2.20;;;19.60;71.20;;;;;;5081691;28;20315;-77
2022/04/29 08:03:50;;;;;;;4.47;2.30;;;19.90;70.60;;;;;;5082872;28;20242;-78
2022/04/29 08:06:21;;;;;;;5.60;2.00;;;20.40;69.70;;;;;;5082508;28;20237;-78
2022/04/29 08:08:49;;;;;;;4.63;2.17;;;20.70;64.80;;;;;;5081682;28;20238;-78
2022/04/29 08:11:18;;;;;;;5.68;2.70;;;21.00;65.30;;;;;;5076619;28;20229;-78
2022/04/29 08:14:06;;;;;;;3.72;1.80;;;21.20;61.90;;;;;;5075098;28;20233;-78
2022/04/29 08:16:59;;;;;;;3.85;1.98;;;21.30;63.00;;;;;;5043706;28;20272;-78
2022/04/29 08:19:34;;;;;;;4.13;1.63;;;21.20;61.40;;;;;;5081357;28;20515;-77
2022/04/29 08:22:12;;;;;;;4.55;2.22;;;21.00;59.90;;;;;;5081664;28;20528;-77
2022/04/29 08:24:38;;;;;;;4.03;2.03;;;20.70;60.60;;;;;;5077150;28;20319;-77
2022/04/29 08:27:07;;;;;;;4.30;1.83;;;20.50;60.10;;;;;;5077484;28;20219;-78
2022/04/29 08:29:35;;;;;;;4.65;1.58;;;20.40;59.80;;;;;;5079417;28;20484;-78
2022/04/29 08:32:04;;;;;;;7.40;2.10;;;20.20;60.20;;;;;;5080912;28;20226;-78
2022/04/29 08:34:31;;;;;;;4.35;1.73;;;20.20;59.90;;;;;;5080340;28;20223;-78
2022/04/29 08:36:58;;;;;;;3.13;1.77;;;20.10;59.70;;;;;;5081554;28;20294;-77
2022/04/29 08:39:24;;;;;;;6.13;1.52;;;20.00;59.10;;;;;;5075411;28;20236;-77
2022/04/29 08:41:51;;;;;;;5.07;2.03;;;19.70;58.50;;;;;;5079703;28;20321;-77
2022/04/29 08:44:23;;;;;;;3.42;1.80;;;19.40;58.10;;;;;;5069375;28;20225;-78
2022/04/29 08:46:58;;;;;;;3.78;1.73;;;19.00;58.20;;;;;;5067219;28;20222;-77
2022/04/29 08:49:36;;;;;;;3.78;1.83;;;18.80;60.00;;;;;;5081018;28;20688;-77
2022/04/29 08:52:03;;;;;;;4.68;2.13;;;18.70;60.70;;;;;;5081497;28;20230;-78
2022/04/29 09:00:04;;;;;;;3.92;1.90;;;18.90;59.90;;;;;;5079542;28;20223;-77
2022/04/29 09:02:38;;;;;;;4.60;2.05;;;18.90;59.20;;;;;;5078490;28;20303;-78
2022/04/29 09:05:08;;;;;;;6.47;1.80;;;18.80;58.40;;;;;;5080151;28;20446;-77
2022/04/29 09:07:55;;;;;;;3.58;1.60;;;18.60;58.60;;;;;;5082215;28;20218;-77
2022/04/29 09:10:22;;;;;;;3.55;1.70;;;18.40;58.60;;;;;;5074828;28;20241;-77
2022/04/29 09:12:49;;;;;;;2.85;1.52;;;18.30;59.00;;;;;;5081842;28;20238;-78
2022/04/29 09:15:18;;;;;;;5.25;1.70;;;18.40;58.40;;;;;;5079911;28;20226;-77
2022/04/29 09:17:46;;;;;;;3.17;1.30;;;18.50;56.90;;;;;;5076004;28;20706;-77
2022/04/29 09:20:18;;;;;;;3.38;1.65;;;18.70;58.20;;;;;;5080677;28;20350;-78
2022/04/29 09:22:49;;;;;;;6.43;1.77;;;19.00;58.30;;;;;;5082073;28;20227;-77
2022/04/29 09:25:37;;;;;;;2.55;1.50;;;19.30;57.80;;;;;;5073650;28;20229;-78
2022/04/29 09:28:26;;;;;;;6.10;1.73;;;19.70;57.90;;;;;;5079210;28;20222;-78
2022/04/29 09:31:14;;;;;;;4.25;1.60;;;20.10;57.40;;;;;;5075104;28;20229;-78
2022/04/29 09:33:55;;;;;;;5.55;1.48;;;20.40;56.70;;;;;;5080978;28;20352;-78
2022/04/29 09:36:27;;;;;;;2.40;1.67;;;20.60;55.90;;;;;;5074163;28;20210;-77
2022/04/29 09:41:54;;;;;;;3.28;1.77;;;21.00;55.00;;;;;;5072593;28;20231;-78
2022/04/29 09:44:27;;;;;;;3.95;1.63;;;21.10;54.60;;;;;;5075445;28;20258;-78
2022/04/29 09:46:55;;;;;;;3.28;1.73;;;21.20;53.80;;;;;;5080950;28;20512;-78
2022/04/29 09:49:28;;;;;;;3.10;1.65;;;21.40;53.00;;;;;;5080642;28;20372;-78
2022/04/29 09:51:55;;;;;;;4.07;1.77;;;21.50;53.20;;;;;;5080427;28;20218;-78
2022/04/29 09:54:25;;;;;;;3.10;1.45;;;21.60;53.20;;;;;;5076691;28;20675;-78
2022/04/29 09:57:10;;;;;;;4.72;2.28;;;21.70;53.50;;;;;;5081334;28;20314;-78
2022/04/29 09:59:38;;;;;;;3.47;2.10;;;21.80;52.20;;;;;;5080171;28;20237;-78
2022/04/29 10:02:08;;;;;;;3.38;1.80;;;21.80;51.90;;;;;;5081377;28;20238;-78
2022/04/29 10:04:37;;;;;;;5.18;1.65;;;21.90;52.20;;;;;;5080423;28;20306;-78
2022/04/29 10:07:05;;;;;;;4.53;1.73;;;22.00;51.90;;;;;;5081822;28;20610;-78
2022/04/29 10:09:33;;;;;;;5.95;2.00;;;22.10;51.70;;;;;;5079547;28;20608;-78
2022/04/29 10:12:02;;;;;;;3.70;1.60;;;22.20;51.60;;;;;;5073788;28;20733;-78
2022/04/29 10:14:31;;;;;;;4.85;1.60;;;22.30;51.20;;;;;;5075058;28;20473;-78
2022/04/29 10:23:06;;;;;;;3.35;1.63;;;22.30;50.30;;;;;;5067387;28;20543;-78
2022/04/29 10:25:34;;;;;;;5.18;1.88;;;22.30;49.50;;;;;;5076745;28;20695;-77
2022/04/29 10:28:02;;;;;;;4.13;1.63;;;22.30;49.60;;;;;;5080106;28;20223;-78
2022/04/29 10:30:31;;;;;;;4.95;1.75;;;22.30;49.80;;;;;;5072579;28;20311;-78
2022/04/29 10:33:07;;;;;;;3.30;1.60;;;22.20;49.70;;;;;;5076215;28;20636;-79
2022/04/29 10:35:50;;;;;;;2.95;1.60;;;22.30;49.40;;;;;;5080871;28;20237;-78
2022/04/29 10:38:18;;;;;;;3.83;1.63;;;22.50;49.80;;;;;;5079723;28;20230;-78
2022/04/29 10:40:48;;;;;;;4.45;1.33;;;22.60;48.80;;;;;;5074092;28;20230;-78
2022/04/29 10:43:18;;;;;;;2.08;1.00;;;22.70;46.80;;;;;;5078409;28;20234;-78
2022/04/29 10:46:17;;;;;;;5.45;2.15;;;22.70;47.60;;;;;;5080876;28;20701;-78
2022/04/29 10:48:53;;;;;;;4.03;1.63;;;22.70;46.60;;;;;;5078208;28;20592;-78
2022/04/29 10:51:51;;;;;;;1.85;1.40;;;22.60;46.50;;;;;;5079815;28;20325;-78
2022/04/29 10:54:48;;;;;;;3.88;1.85;;;22.50;46.00;;;;;;5078460;28;20706;-78
2022/04/29 10:57:38;;;;;;;4.28;1.75;;;22.50;46.20;;;;;;5077500;28;20304;-78
2022/04/29 11:00:11;;;;;;;3.30;1.50;;;22.60;46.90;;;;;;5079928;28;20222;-78
2022/04/29 11:02:40;;;;;;;4.10;1.60;;;22.70;46.20;;;;;;5079093;28;20472;-78
2022/04/29 11:05:08;;;;;;;3.63;1.60;;;22.60;46.30;;;;;;5076313;28;20318;-78
2022/04/29 11:07:48;;;;;;;3.33;1.75;;;22.60;46.60;;;;;;5086309;28;20226;-78
2022/04/29 11:10:20;;;;;;;3.70;1.65;;;22.40;45.60;;;;;;5077765;28;20237;-78
2022/04/29 11:12:58;;;;;;;4.15;1.70;;;22.30;45.60;;;;;;5083830;28;20234;-78
2022/04/29 11:16:12;;;;;;;2.83;1.60;;;22.30;45.90;;;;;;5078317;28;20218;-78
2022/04/29 11:19:21;;;;;;;3.65;1.58;;;22.20;46.10;;;;;;5082855;28;20319;-78
2022/04/29 11:24:44;;;;;;;3.45;1.75;;;22.40;45.30;;;;;;5081703;28;20416;-78
2022/04/29 11:27:25;;;;;;;4.38;1.60;;;22.60;46.20;;;;;;5082077;28;20226;-78
2022/04/29 11:29:54;;;;;;;3.28;1.60;;;22.60;45.80;;;;;;5079937;28;20531;-78
2022/04/29 11:32:27;;;;;;;4.10;1.73;;;22.80;46.50;;;;;;5075016;28;20511;-79
2022/04/29 11:34:54;;;;;;;3.63;2.08;;;22.90;45.90;;;;;;5083316;28;20699;-78
2022/04/29 11:37:24;;;;;;;3.33;2.00;;;23.00;46.20;;;;;;5080795;28;20322;-78
2022/04/29 11:39:52;;;;;;;3.30;2.10;;;23.10;45.20;;;;;;5081575;28;20231;-79
2022/04/29 11:42:19;;;;;;;5.32;1.98;;;23.10;45.60;;;;;;5082510;28;20219;-78
2022/04/29 11:44:49;;;;;;;5.32;2.40;;;23.10;45.30;;;;;;5078701;28;20265;-78
2022/04/29 11:47:18;;;;;;;4.55;2.08;;;23.10;45.00;;;;;;5082838;28;20230;-78
2022/04/29 11:49:45;;;;;;;3.90;2.05;;;23.20;44.20;;;;;;5078282;28;20633;-78
2022/04/29 11:52:18;;;;;;;2.70;1.77;;;23.20;44.90;;;;;;5076556;28;20227;-78
2022/04/29 11:54:54;;;;;;;3.80;1.73;;;23.20;44.60;;;;;;5076059;28;20783;-79
2022/04/29 11:57:22;;;;;;;4.32;1.77;;;23.20;44.20;;;;;;5079409;28;20246;-78
2022/04/29 11:59:49;;;;;;;4.82;2.00;;;23.20;43.90;;;;;;5075167;28;20246;-78
2022/04/29 12:02:18;;;;;;;4.03;1.95;;;23.00;43.40;;;;;;5076017;28;20243;-78
2022/04/29 12:04:56;;;;;;;3.35;1.80;;;22.80;43.20;;;;;;5074226;28;20344;-79
2022/04/29 12:07:23;;;;;;;3.40;1.70;;;22.50;43.40;;;;;;5071850;28;20255;-78
2022/04/29 12:09:53;;;;;;;4.65;1.77;;;22.30;43.80;;;;;;5069747;28;20306;-79
2022/04/29 12:12:24;;;;;;;2.65;2.30;;;22.20;44.00;;;;;;5073764;28;20227;-78
2022/04/29 12:14:51;;;;;;;3.08;2.00;;;22.00;44.10;;;;;;5073456;28;20227;-79
2022/04/29 12:17:18;;;;;;;2.47;1.77;;;22.00;44.30;;;;;;5073548;28;20231;-78
2022/04/29 12:20:02;;;;;;;4.57;1.90;;;22.00;44.70;;;;;;5079990;28;20309;-79
2022/04/29 12:22:42;;;;;;;2.90;1.98;;;21.90;45.00;;;;;;5057253;28;20229;-78
2022/04/29 12:25:24;;;;;;;3.92;2.03;;;21.80;45.30;;;;;;5071952;28;20325;-79
2022/04/29 12:28:08;;;;;;;5.20;2.20;;;21.80;45.40;;;;;;5076589;28;20220;-78
2022/04/29 12:36:10;;;;;;;4.07;2.08;;;21.70;45.20;;;;;;5082399;28;20230;-78
2022/04/29 12:38:38;;;;;;;2.95;1.83;;;21.60;45.30;;;;;;5072945;28;20227;-79
2022/04/29 12:41:21;;;;;;;3.88;1.70;;;21.60;45.50;;;;;;5071649;28;20226;-78
2022/04/29 12:43:48;;;;;;;3.25;1.80;;;21.50;45.20;;;;;;5072075;28;20238;-79
2022/04/29 12:46:15;;;;;;;3.65;2.00;;;21.50;45.40;;;;;;5068523;28;20236;-78
2022/04/29 12:48:50;;;;;;;3.85;1.60;;;21.40;44.70;;;;;;5073543;28;20309;-78
2022/04/29 12:51:26;;;;;;;4.38;2.17;;;21.30;44.70;;;;;;5078147;28;20218;-79
2022/04/29 12:53:53;;;;;;;3.88;1.90;;;21.20;44.90;;;;;;5072897;28;20265;-78
2022/04/29 12:56:26;;;;;;;5.10;2.03;;;21.20;45.40;;;;;;5071680;28;20226;-80
2022/04/29 12:58:53;;;;;;;2.95;1.73;;;21.20;45.20;;;;;;5074337;28;20230;-78
2022/04/29 13:01:19;;;;;;;3.55;2.03;;;21.30;45.30;;;;;;5073455;28;21013;-78
2022/04/29 13:03:55;;;;;;;3.08;1.70;;;21.40;45.30;;;;;;5075401;28;20223;-78
2022/04/29 13:06:28;;;;;;;3.70;1.88;;;21.40;44.80;;;;;;5075374;28;20223;-80
2022/04/29 13:08:55;;;;;;;3.25;1.85;;;21.50;44.60;;;;;;5073164;28;20215;-78
2022/04/29 13:11:22;;;;;;;3.88;1.60;;;21.50;44.50;;;;;;5074374;28;20334;-78
2022/04/29 13:13:51;;;;;;;4.05;1.83;;;21.50;44.30;;;;;;5073393;28;20215;-79
2022/04/29 13:16:20;;;;;;;4.38;2.15;;;21.40;44.10;;;;;;5074153;28;20577;-78
2022/04/29 13:18:48;;;;;;;3.08;1.55;;;21.40;43.60;;;;;;5076550;28;20226;-79
2022/04/29 13:21:17;;;;;;;3.03;1.60;;;21.30;43.60;;;;;;5072129;28;20231;-78
2022/04/29 13:23:47;;;;;;;3.00;1.60;;;21.20;43.60;;;;;;5075325;28;20388;-79
2022/04/29 13:26:32;;;;;;;3.53;1.77;;;21.00;43.50;;;;;;5077866;28;20232;-78
2022/04/29 13:29:00;;;;;;;5.85;1.90;;;20.90;43.40;;;;;;5080199;28;20250;-78
2022/04/29 13:31:27;;;;;;;3.85;2.08;;;20.70;43.50;;;;;;5073700;28;20249;-78
2022/04/29 13:33:54;;;;;;;2.05;1.63;;;20.60;43.70;;;;;;5075081;28;20318;-78
2022/04/29 13:36:21;;;;;;;4.13;2.00;;;20.50;43.40;;;;;;5079165;28;20568;-78
2022/04/29 13:38:48;;;;;;;5.68;2.38;;;20.40;43.40;;;;;;5074689;28;20227;-79
2022/04/29 13:41:17;;;;;;;3.25;1.73;;;20.40;44.10;;;;;;5071860;28;20247;-78
2022/04/29 13:43:43;;;;;;;4.40;2.38;;;20.50;44.50;;;;;;5075125;28;20580;-78
2022/04/29 13:46:12;;;;;;;5.63;3.22;;;20.50;44.90;;;;;;5074544;28;20938;-84
2022/04/29 13:48:39;;;;;;;5.55;2.75;;;20.50;45.30;;;;;;5072036;28;20230;-79
2022/04/29 13:51:06;;;;;;;8.10;3.25;;;20.50;45.50;;;;;;5075132;28;20222;-79
2022/04/29 13:53:33;;;;;;;3.67;2.50;;;20.30;45.50;;;;;;5072791;28;20322;-78